createdAt,value
2022-08-04T00:09:17.636Z,2.75
2022-08-04T00:19:30.334Z,3.00
2022-08-04T00:29:33.699Z,3.00
2022-08-04T00:39:38.704Z,3.15
2022-08-04T00:50:05.006Z,2.70
2022-08-04T01:00:11.902Z,3.13
2022-08-04T01:10:24.825Z,3.42
2022-08-04T01:20:34.648Z,2.80
2022-08-04T01:30:42.987Z,3.00
2022-08-04T01:40:47.504Z,2.97
2022-08-04T01:50:54.136Z,3.13
2022-08-04T02:00:59.828Z,3.13
2022-08-04T02:11:12.537Z,2.95
2022-08-04T02:21:21.253Z,3.00
2022-08-04T02:31:33.355Z,2.92
2022-08-04T02:41:37.196Z,3.15
2022-08-04T02:51:44.366Z,2.75
2022-08-04T03:01:57.347Z,3.08
2022-08-04T03:12:37.121Z,3.28
2022-08-04T03:23:14.146Z,3.03
2022-08-04T03:33:43.714Z,3.25
2022-08-04T03:44:17.470Z,2.92
2022-08-04T03:55:06.193Z,3.00
2022-08-04T04:06:00.511Z,3.17
2022-08-04T04:16:21.831Z,3.03
2022-08-04T04:26:39.025Z,3.42
2022-08-04T04:37:02.214Z,3.13
2022-08-04T04:47:14.526Z,3.17
2022-08-04T04:57:49.221Z,3.30
2022-08-04T05:08:43.541Z,3.20
2022-08-04T05:18:33.882Z,3.28
2022-08-04T05:28:42.442Z,3.30
2022-08-04T05:38:47.087Z,3.00
2022-08-04T05:48:52.366Z,3.13
2022-08-04T05:58:56.192Z,3.15
2022-08-04T06:09:00.663Z,3.05
2022-08-04T06:19:58.917Z,3.25
2022-08-04T06:29:36.147Z,3.20
2022-08-04T06:39:39.845Z,3.33
2022-08-04T06:51:30.430Z,3.17
2022-08-04T07:00:12.155Z,3.35
2022-08-04T07:10:20.319Z,2.85
2022-08-04T07:20:35.849Z,2.63
2022-08-04T07:30:41.997Z,3.03
2022-08-04T07:40:45.552Z,2.92
2022-08-04T07:50:50.565Z,3.00
2022-08-04T08:00:54.745Z,3.10
2022-08-04T08:10:59.756Z,2.67
2022-08-04T08:21:03.045Z,2.30
2022-08-04T08:31:07.618Z,3.00
2022-08-04T08:41:43.925Z,2.53
2022-08-04T08:52:00.919Z,3.10
2022-08-04T09:02:32.254Z,2.83
2022-08-04T09:12:46.496Z,2.90
2022-08-04T09:22:53.192Z,2.53
2022-08-04T09:33:09.808Z,2.70
2022-08-04T09:44:42.717Z,2.53
2022-08-04T09:54:05.016Z,2.92
2022-08-04T10:04:13.201Z,2.45
2022-08-04T10:14:36.462Z,2.72
2022-08-04T10:24:54.498Z,2.65
2022-08-04T10:35:06.750Z,2.63
2022-08-04T10:45:18.130Z,2.60
2022-08-04T10:56:07.142Z,2.63
2022-08-04T11:05:55.135Z,2.10
2022-08-04T11:16:05.100Z,2.20
2022-08-04T11:26:14.208Z,2.50
2022-08-04T11:36:28.077Z,2.08
2022-08-04T11:46:38.191Z,2.03
2022-08-04T11:56:42.721Z,2.05
2022-08-04T12:07:04.687Z,2.30
2022-08-04T12:17:26.769Z,1.90
2022-08-04T12:27:47.412Z,1.90
2022-08-04T12:37:59.438Z,2.03
2022-08-04T12:48:05.820Z,2.25
2022-08-04T12:58:43.823Z,2.10
2022-08-04T13:08:44.374Z,1.83
2022-08-04T13:18:50.836Z,2.13
2022-08-04T13:28:55.838Z,2.03
2022-08-04T13:39:14.842Z,1.98
2022-08-04T13:59:48.695Z,1.90
2022-08-04T14:10:03.771Z,1.80
2022-08-04T14:20:09.672Z,1.85
2022-08-04T14:30:26.793Z,1.88
2022-08-04T14:40:33.266Z,2.13
2022-08-04T14:50:40.164Z,1.98
2022-08-04T15:00:44.716Z,1.85
2022-08-04T15:10:47.767Z,2.08
2022-08-04T15:20:53.337Z,1.85
2022-08-04T15:30:57.260Z,2.50
2022-08-04T15:41:09.081Z,2.47
2022-08-04T15:51:15.292Z,2.15
2022-08-04T16:01:21.497Z,2.60
2022-08-04T16:11:41.043Z,2.33
2022-08-04T16:21:50.745Z,2.30
2022-08-04T16:32:10.350Z,2.47
2022-08-04T16:42:35.021Z,2.20
2022-08-04T16:52:43.927Z,2.38
2022-08-04T17:02:51.645Z,2.30
2022-08-04T17:13:08.590Z,2.17
2022-08-04T17:24:16.307Z,2.45
2022-08-04T17:34:03.596Z,2.65
2022-08-04T17:44:11.627Z,2.58
2022-08-04T17:54:16.190Z,3.10
2022-08-04T18:04:41.049Z,3.25
2022-08-04T18:15:06.697Z,2.65
2022-08-04T18:25:13.327Z,2.80
2022-08-04T18:35:18.105Z,2.90
2022-08-04T18:45:24.025Z,2.80
2022-08-04T19:06:02.662Z,2.80
2022-08-04T19:16:06.440Z,2.70
2022-08-04T19:36:46.067Z,2.83
2022-08-04T19:46:50.642Z,2.85
2022-08-04T19:56:55.424Z,3.72
2022-08-04T20:07:00.714Z,2.50
2022-08-04T20:17:10.319Z,2.70
2022-08-04T20:27:16.473Z,2.80
2022-08-04T20:37:20.707Z,2.60
2022-08-04T20:47:26.119Z,2.78
2022-08-04T20:57:48.379Z,2.60
2022-08-04T21:07:56.556Z,2.80
2022-08-04T21:18:04.410Z,2.90
2022-08-04T21:28:09.152Z,2.72
2022-08-04T21:38:16.209Z,2.60
2022-08-04T21:48:21.879Z,2.60
2022-08-04T21:58:29.150Z,2.80
2022-08-04T22:08:37.525Z,2.72
2022-08-04T22:18:41.905Z,3.30
2022-08-04T22:28:50.287Z,3.03
2022-08-04T22:39:01.651Z,3.00
2022-08-04T22:49:11.252Z,3.00
2022-08-04T22:59:14.346Z,3.53
2022-08-04T23:09:18.754Z,3.60
2022-08-04T23:19:21.809Z,3.03
2022-08-04T23:29:52.756Z,2.78
2022-08-04T23:40:17.858Z,2.55
2022-08-04T23:50:17.133Z,2.13
